sim
Sign-in with your pilot id or email,
or register
Callsign
Passwort

Schedule Details

Flight Number: DLH2197
Departure: Hamburg Airport (EDDH) at 19:00
Arrival: Munich Airport (EDDM) at 20:15
Route: Lufthansa Passenger Schedule. Enter filed route here before submitting Pirep.

Weather Information
Getting current METAR information for EDDH 231250Z 22014KT CAVOK 23/10 Q1003 NOSIG
Getting current METAR information for EDDM 231250Z 25005KT 230V290 6000 SHRA SCT015 SCT020CB BKN043 18/15 Q1010 TEMPO 4000

Schedule Frequency

Route Map